Terminal Aerodrome Forecast
Issued by NWS San Angelo, TX

Home | Current Version | Previous Version | Text Only | Print | Product List | Glossary On
Versions: 1 2 3 4 5 6 7 8 9 10 11 12 13 14 15 16 17 18 19 20 21
000
FTUS44 KSJT 210855 AAC
TAFSJT
TAF AMD
KSJT 210855Z 2109/2206 10010KT 2SM -RA BKN004 OVC015
     FM211100 16010KT 3SM BR VCSH BKN008
     FM211300 21014G22KT P6SM OVC015
     FM211800 26015G23KT P6SM SCT250
     FM212300 32017G26KT P6SM FEW250=

USA.gov is the U.S. government's official web portal to all federal, state and local government web resources and services.